sensor_id;sensor_type;location;lat;lon;timestamp;pressure;altitude;pressure_sealevel;temperature;humidity
61682;BME280;47577;43.610;25.010;2023-02-11T07:48:37;102437.44;;;-2.13;68.42
61682;BME280;47577;43.610;25.010;2023-02-11T08:11:51;102424.25;;;-1.44;65.36
61682;BME280;47577;43.610;25.010;2023-02-11T08:14:17;102414.66;;;-1.45;65.17
61682;BME280;47577;43.610;25.010;2023-02-11T08:16:45;102405.28;;;-1.22;62.26
61682;BME280;47577;43.610;25.010;2023-02-11T08:19:14;102407.03;;;-1.23;62.26
61682;BME280;47577;43.610;25.010;2023-02-11T08:21:41;102409.59;;;-1.05;63.45
61682;BME280;47577;43.610;25.010;2023-02-11T08:24:08;102399.22;;;-1.03;60.72
61682;BME280;47577;43.610;25.010;2023-02-11T08:47:15;102382.50;;;-0.27;61.09
61682;BME280;47577;43.610;25.010;2023-02-11T08:49:41;102392.13;;;-0.05;60.26
61682;BME280;47577;43.610;25.010;2023-02-11T08:52:07;102385.41;;;0.02;61.64
61682;BME280;47577;43.610;25.010;2023-02-11T08:54:33;102390.16;;;0.10;58.66
61682;BME280;47577;43.610;25.010;2023-02-11T08:56:59;102387.72;;;0.15;61.00
61682;BME280;47577;43.610;25.010;2023-02-11T08:59:26;102391.28;;;0.17;60.00
61682;BME280;47577;43.610;25.010;2023-02-11T09:01:52;102386.31;;;0.23;59.00
61682;BME280;47577;43.610;25.010;2023-02-11T09:12:03;102384.03;;;0.32;60.02
61682;BME280;47577;43.610;25.010;2023-02-11T09:14:29;102389.94;;;0.49;56.78
61682;BME280;47577;43.610;25.010;2023-02-11T09:24:40;102373.47;;;0.75;57.57
61682;BME280;47577;43.610;25.010;2023-02-11T09:27:06;102365.13;;;0.85;57.05
61682;BME280;47577;43.610;25.010;2023-02-11T09:29:31;102363.81;;;0.73;56.88
61682;BME280;47577;43.610;25.010;2023-02-11T09:31:57;102379.16;;;0.87;57.64
61682;BME280;47577;43.610;25.010;2023-02-11T09:34:22;102368.19;;;0.97;54.92
61682;BME280;47577;43.610;25.010;2023-02-11T09:36:48;102362.50;;;0.85;53.83
61682;BME280;47577;43.610;25.010;2023-02-11T09:39:17;102349.59;;;0.89;55.61
61682;BME280;47577;43.610;25.010;2023-02-11T09:44:45;102355.53;;;1.09;53.87
61682;BME280;47577;43.610;25.010;2023-02-11T09:47:20;102344.81;;;1.03;51.83
61682;BME280;47577;43.610;25.010;2023-02-11T09:49:51;102335.91;;;1.22;51.50
61682;BME280;47577;43.610;25.010;2023-02-11T09:55:04;102313.38;;;1.53;51.40
61682;BME280;47577;43.610;25.010;2023-02-11T09:57:33;102317.78;;;1.54;49.62
61682;BME280;47577;43.610;25.010;2023-02-11T10:00:00;102308.41;;;1.61;50.52
61682;BME280;47577;43.610;25.010;2023-02-11T10:10:58;102284.34;;;1.74;50.74
61682;BME280;47577;43.610;25.010;2023-02-11T10:18:49;102289.22;;;1.63;52.50
61682;BME280;47577;43.610;25.010;2023-02-11T10:26:45;102195.94;;;1.43;53.21
61682;BME280;47577;43.610;25.010;2023-02-11T10:29:29;102201.97;;;1.40;52.64
61682;BME280;47577;43.610;25.010;2023-02-11T10:32:01;102220.47;;;1.72;51.77
61682;BME280;47577;43.610;25.010;2023-02-11T10:34:28;102183.28;;;1.86;52.95
61682;BME280;47577;43.610;25.010;2023-02-11T10:36:54;102209.09;;;2.00;50.04
61682;BME280;47577;43.610;25.010;2023-02-11T10:39:21;102212.56;;;1.99;50.71
61682;BME280;47577;43.610;25.010;2023-02-11T10:42:24;102226.47;;;2.26;50.12
61682;BME280;47577;43.610;25.010;2023-02-11T10:44:59;102220.63;;;2.36;49.35
61682;BME280;47577;43.610;25.010;2023-02-11T10:47:28;102219.78;;;2.37;49.86
61682;BME280;47577;43.610;25.010;2023-02-11T10:49:57;102206.56;;;2.34;47.62
61682;BME280;47577;43.610;25.010;2023-02-11T10:52:28;102199.13;;;2.49;49.46
61682;BME280;47577;43.610;25.010;2023-02-11T10:55:19;102223.84;;;2.56;48.82
61682;BME280;47577;43.610;25.010;2023-02-11T10:57:58;102206.75;;;2.40;49.19
61682;BME280;47577;43.610;25.010;2023-02-11T11:00:36;102208.69;;;2.47;50.76
61682;BME280;47577;43.610;25.010;2023-02-11T11:03:16;102180.63;;;2.45;49.57
61682;BME280;47577;43.610;25.010;2023-02-11T11:05:56;102187.34;;;2.67;48.79
61682;BME280;47577;43.610;25.010;2023-02-11T11:08:48;102197.00;;;2.36;48.89
61682;BME280;47577;43.610;25.010;2023-02-11T11:11:16;102185.25;;;2.53;49.28
61682;BME280;47577;43.610;25.010;2023-02-11T11:18:53;102173.63;;;2.77;50.94
61682;BME280;47577;43.610;25.010;2023-02-11T11:24:17;102180.88;;;2.54;46.42
61682;BME280;47577;43.610;25.010;2023-02-11T11:26:50;102161.09;;;2.67;47.95
61682;BME280;47577;43.610;25.010;2023-02-11T11:29:23;102158.38;;;2.64;48.08
61682;BME280;47577;43.610;25.010;2023-02-11T11:31:58;102163.50;;;2.58;48.10
61682;BME280;47577;43.610;25.010;2023-02-11T11:34:34;102136.47;;;2.63;48.27
61682;BME280;47577;43.610;25.010;2023-02-11T11:37:26;102144.09;;;2.54;45.87
61682;BME280;47577;43.610;25.010;2023-02-11T11:42:32;102138.16;;;2.95;46.91
61682;BME280;47577;43.610;25.010;2023-02-11T11:50:08;102131.94;;;2.91;45.37
61682;BME280;47577;43.610;25.010;2023-02-11T11:52:47;102122.56;;;2.66;45.84
61682;BME280;47577;43.610;25.010;2023-02-11T11:55:40;102119.06;;;3.02;46.10
61682;BME280;47577;43.610;25.010;2023-02-11T11:58:19;102109.69;;;3.11;45.95
61682;BME280;47577;43.610;25.010;2023-02-11T12:10:21;102093.88;;;3.10;46.60
61682;BME280;47577;43.610;25.010;2023-02-11T12:16:02;102069.81;;;3.31;45.69
61682;BME280;47577;43.610;25.010;2023-02-11T12:35:23;102043.34;;;2.85;44.75
61682;BME280;47577;43.610;25.010;2023-02-11T12:38:37;102048.72;;;2.91;42.64
61682;BME280;47577;43.610;25.010;2023-02-11T12:56:13;102025.53;;;2.73;44.89
61682;BME280;47577;43.610;25.010;2023-02-11T12:58:42;102026.22;;;3.03;45.10
61682;BME280;47577;43.610;25.010;2023-02-11T13:03:46;102028.88;;;2.66;45.05
61682;BME280;47577;43.610;25.010;2023-02-11T13:06:19;102021.31;;;2.80;45.46
61682;BME280;47577;43.610;25.010;2023-02-11T13:08:49;102000.06;;;3.07;46.50
61682;BME280;47577;43.610;25.010;2023-02-11T13:11:20;102008.91;;;3.13;45.62
61682;BME280;47577;43.610;25.010;2023-02-11T13:13:53;102014.41;;;2.84;46.09
61682;BME280;47577;43.610;25.010;2023-02-11T13:16:45;102007.13;;;3.10;46.53
61682;BME280;47577;43.610;25.010;2023-02-11T13:24:42;101991.16;;;3.01;46.77
61682;BME280;47577;43.610;25.010;2023-02-11T13:27:16;101968.69;;;3.15;47.06
61682;BME280;47577;43.610;25.010;2023-02-11T13:30:07;102009.78;;;3.11;47.27
61682;BME280;47577;43.610;25.010;2023-02-11T13:37:54;101979.16;;;3.14;48.52
61682;BME280;47577;43.610;25.010;2023-02-11T13:40:26;101980.06;;;3.55;47.46
61682;BME280;47577;43.610;25.010;2023-02-11T13:42:55;101983.97;;;3.33;47.68
61682;BME280;47577;43.610;25.010;2023-02-11T13:48:27;101981.09;;;3.22;46.75
61682;BME280;47577;43.610;25.010;2023-02-11T13:50:58;101978.00;;;3.40;46.64
61682;BME280;47577;43.610;25.010;2023-02-11T13:53:24;101973.06;;;3.57;46.71
61682;BME280;47577;43.610;25.010;2023-02-11T13:56:04;101975.75;;;3.60;47.46
61682;BME280;47577;43.610;25.010;2023-02-11T13:58:35;101972.22;;;3.58;47.67
61682;BME280;47577;43.610;25.010;2023-02-11T14:01:05;101974.09;;;3.21;48.28
61682;BME280;47577;43.610;25.010;2023-02-11T14:03:34;101967.06;;;3.63;48.30
61682;BME280;47577;43.610;25.010;2023-02-11T14:06:23;101960.75;;;4.00;46.66
61682;BME280;47577;43.610;25.010;2023-02-11T14:14:21;101950.66;;;3.32;48.37
61682;BME280;47577;43.610;25.010;2023-02-11T14:22:12;101948.56;;;3.17;50.01
61682;BME280;47577;43.610;25.010;2023-02-11T14:24:39;101938.84;;;3.56;48.59
61682;BME280;47577;43.610;25.010;2023-02-11T14:30:19;101922.38;;;3.64;47.93
61682;BME280;47577;43.610;25.010;2023-02-11T14:35:42;101933.38;;;3.46;48.20
61682;BME280;47577;43.610;25.010;2023-02-11T14:41:25;101926.56;;;3.56;48.75
61682;BME280;47577;43.610;25.010;2023-02-11T14:43:54;101911.38;;;3.41;50.27
61682;BME280;47577;43.610;25.010;2023-02-11T14:46:23;101918.47;;;3.44;49.10
61682;BME280;47577;43.610;25.010;2023-02-11T14:48:52;101915.66;;;2.93;50.31
61682;BME280;47577;43.610;25.010;2023-02-11T14:51:28;101922.09;;;3.06;50.85
61682;BME280;47577;43.610;25.010;2023-02-11T14:54:20;101917.31;;;2.88;50.38
61682;BME280;47577;43.610;25.010;2023-02-11T14:57:16;101916.59;;;2.96;50.87
61682;BME280;47577;43.610;25.010;2023-02-11T15:00:19;101928.13;;;2.63;52.21
61682;BME280;47577;43.610;25.010;2023-02-11T15:02:45;101919.38;;;2.64;52.88
61682;BME280;47577;43.610;25.010;2023-02-11T15:05:25;101909.22;;;2.79;51.89
61682;BME280;47577;43.610;25.010;2023-02-11T15:07:54;101897.09;;;2.46;53.50
61682;BME280;47577;43.610;25.010;2023-02-11T15:10:37;101898.25;;;2.59;53.06
61682;BME280;47577;43.610;25.010;2023-02-11T15:13:08;101906.59;;;2.41;53.24
61682;BME280;47577;43.610;25.010;2023-02-11T15:15:39;101891.34;;;2.26;54.45
61682;BME280;47577;43.610;25.010;2023-02-11T15:18:05;101887.19;;;2.34;54.60
61682;BME280;47577;43.610;25.010;2023-02-11T15:20:35;101891.56;;;2.34;54.29
61682;BME280;47577;43.610;25.010;2023-02-11T15:23:04;101888.84;;;2.31;55.18
61682;BME280;47577;43.610;25.010;2023-02-11T15:25:32;101884.34;;;2.25;55.20
61682;BME280;47577;43.610;25.010;2023-02-11T15:27:58;101878.13;;;2.22;55.07
61682;BME280;47577;43.610;25.010;2023-02-11T15:30:30;101881.56;;;2.19;55.25
61682;BME280;47577;43.610;25.010;2023-02-11T15:33:00;101884.28;;;2.22;55.76
61682;BME280;47577;43.610;25.010;2023-02-11T15:35:32;101868.81;;;1.98;55.93
61682;BME280;47577;43.610;25.010;2023-02-11T15:37:59;101875.91;;;2.02;56.05
61682;BME280;47577;43.610;25.010;2023-02-11T15:40:29;101879.38;;;2.01;56.55
61682;BME280;47577;43.610;25.010;2023-02-11T15:43:07;101876.53;;;1.92;56.86
61682;BME280;47577;43.610;25.010;2023-02-11T15:45:56;101874.63;;;1.86;56.96
61682;BME280;47577;43.610;25.010;2023-02-11T15:48:32;101878.34;;;1.61;57.70
61682;BME280;47577;43.610;25.010;2023-02-11T15:51:07;101861.19;;;1.40;58.53
61682;BME280;47577;43.610;25.010;2023-02-11T15:53:39;101859.00;;;1.24;59.04
61682;BME280;47577;43.610;25.010;2023-02-11T15:56:21;101877.94;;;1.14;59.62
61682;BME280;47577;43.610;25.010;2023-02-11T15:58:53;101880.34;;;1.06;60.79
61682;BME280;47577;43.610;25.010;2023-02-11T16:01:31;101874.81;;;0.97;60.62
61682;BME280;47577;43.610;25.010;2023-02-11T16:03:58;101861.94;;;0.74;61.82
61682;BME280;47577;43.610;25.010;2023-02-11T16:06:28;101868.81;;;0.70;61.93
61682;BME280;47577;43.610;25.010;2023-02-11T16:42:42;101844.75;;;-0.03;64.93
61682;BME280;47577;43.610;25.010;2023-02-11T16:45:08;101848.88;;;-0.09;64.54
61682;BME280;47577;43.610;25.010;2023-02-11T16:47:34;101833.41;;;-0.03;64.64
61682;BME280;47577;43.610;25.010;2023-02-11T16:50:08;101837.97;;;0.04;64.29
61682;BME280;47577;43.610;25.010;2023-02-11T16:52:35;101851.25;;;0.10;64.17
61682;BME280;47577;43.610;25.010;2023-02-11T16:55:02;101839.16;;;0.14;64.16
61682;BME280;47577;43.610;25.010;2023-02-11T16:57:30;101838.97;;;0.08;65.10
61682;BME280;47577;43.610;25.010;2023-02-11T16:59:56;101831.25;;;0.12;63.82
61682;BME280;47577;43.610;25.010;2023-02-11T17:02:29;101824.34;;;0.14;64.23
61682;BME280;47577;43.610;25.010;2023-02-11T17:04:57;101812.72;;;0.05;64.13
61682;BME280;47577;43.610;25.010;2023-02-11T17:07:23;101827.56;;;0.06;64.53
61682;BME280;47577;43.610;25.010;2023-02-11T17:09:49;101821.25;;;-0.01;64.82
61682;BME280;47577;43.610;25.010;2023-02-11T17:12:16;101833.34;;;-0.05;64.21
61682;BME280;47577;43.610;25.010;2023-02-11T17:14:43;101821.38;;;0.02;64.81
61682;BME280;47577;43.610;25.010;2023-02-11T17:17:09;101824.91;;;0.04;64.32
61682;BME280;47577;43.610;25.010;2023-02-11T17:19:35;101823.06;;;0.02;65.06
61682;BME280;47577;43.610;25.010;2023-02-11T17:22:02;101816.19;;;0.04;64.72
61682;BME280;47577;43.610;25.010;2023-02-11T17:24:28;101830.25;;;0.07;64.93
61682;BME280;47577;43.610;25.010;2023-02-11T17:26:54;101811.97;;;-0.19;65.24
61682;BME280;47577;43.610;25.010;2023-02-11T17:29:22;101832.16;;;-0.14;66.35
61682;BME280;47577;43.610;25.010;2023-02-11T17:31:49;101814.78;;;-0.12;65.53
61682;BME280;47577;43.610;25.010;2023-02-11T17:34:16;101813.16;;;-0.09;64.91
61682;BME280;47577;43.610;25.010;2023-02-11T17:36:42;101823.03;;;0.00;65.17
61682;BME280;47577;43.610;25.010;2023-02-11T17:39:09;101816.66;;;-0.08;65.11
61682;BME280;47577;43.610;25.010;2023-02-11T17:41:38;101820.78;;;-0.15;65.37
61682;BME280;47577;43.610;25.010;2023-02-11T17:44:05;101822.59;;;-0.14;64.98
61682;BME280;47577;43.610;25.010;2023-02-11T17:46:33;101800.91;;;-0.10;64.53
61682;BME280;47577;43.610;25.010;2023-02-11T17:49:00;101818.44;;;-0.07;65.38
61682;BME280;47577;43.610;25.010;2023-02-11T17:51:32;101810.00;;;0.02;64.54
61682;BME280;47577;43.610;25.010;2023-02-11T17:54:00;101816.13;;;0.02;65.01
61682;BME280;47577;43.610;25.010;2023-02-11T17:56:26;101808.22;;;0.01;64.86
61682;BME280;47577;43.610;25.010;2023-02-11T17:58:51;101808.38;;;0.05;64.81
61682;BME280;47577;43.610;25.010;2023-02-11T18:01:18;101810.19;;;0.08;64.51
61682;BME280;47577;43.610;25.010;2023-02-11T18:03:44;101809.22;;;0.04;63.65
61682;BME280;47577;43.610;25.010;2023-02-11T18:06:10;101793.47;;;0.03;64.70
61682;BME280;47577;43.610;25.010;2023-02-11T18:08:36;101803.19;;;0.07;63.84
61682;BME280;47577;43.610;25.010;2023-02-11T18:11:02;101793.22;;;-0.05;64.12
61682;BME280;47577;43.610;25.010;2023-02-11T18:13:28;101793.03;;;-0.11;64.52
61682;BME280;47577;43.610;25.010;2023-02-11T18:15:54;101798.84;;;-0.20;64.53
61682;BME280;47577;43.610;25.010;2023-02-11T18:18:20;101786.03;;;-0.12;64.87
61682;BME280;47577;43.610;25.010;2023-02-11T18:20:57;101787.94;;;-0.07;64.23
61682;BME280;47577;43.610;25.010;2023-02-11T18:23:23;101793.31;;;-0.02;64.54
61682;BME280;47577;43.610;25.010;2023-02-11T18:25:49;101782.66;;;-0.08;63.83
61682;BME280;47577;43.610;25.010;2023-02-11T18:28:15;101786.09;;;-0.11;64.53
61682;BME280;47577;43.610;25.010;2023-02-11T18:30:40;101784.25;;;-0.13;64.32
61682;BME280;47577;43.610;25.010;2023-02-11T18:33:06;101781.63;;;-0.13;64.56
61682;BME280;47577;43.610;25.010;2023-02-11T18:35:37;101776.06;;;-0.24;64.54
61682;BME280;47577;43.610;25.010;2023-02-11T18:38:03;101776.19;;;-0.20;64.74
61682;BME280;47577;43.610;25.010;2023-02-11T18:40:28;101775.72;;;-0.08;64.79
61682;BME280;47577;43.610;25.010;2023-02-11T18:42:54;101768.59;;;-0.12;64.05
61682;BME280;47577;43.610;25.010;2023-02-11T18:45:19;101778.44;;;-0.05;64.00
61682;BME280;47577;43.610;25.010;2023-02-11T18:47:45;101772.84;;;-0.15;64.67
61682;BME280;47577;43.610;25.010;2023-02-11T18:50:11;101773.31;;;-0.29;65.46
61682;BME280;47577;43.610;25.010;2023-02-11T18:52:39;101776.91;;;-0.25;65.15
61682;BME280;47577;43.610;25.010;2023-02-11T18:55:05;101779.19;;;-0.34;66.00
61682;BME280;47577;43.610;25.010;2023-02-11T18:57:31;101771.09;;;-0.44;67.05
61682;BME280;47577;43.610;25.010;2023-02-11T18:59:56;101772.69;;;-0.47;65.68
61682;BME280;47577;43.610;25.010;2023-02-11T19:02:22;101767.56;;;-0.44;65.89
61682;BME280;47577;43.610;25.010;2023-02-11T19:04:49;101758.53;;;-0.54;66.06
61682;BME280;47577;43.610;25.010;2023-02-11T19:07:15;101755.09;;;-0.53;66.02
61682;BME280;47577;43.610;25.010;2023-02-11T19:09:41;101756.84;;;-0.52;66.05
61682;BME280;47577;43.610;25.010;2023-02-11T19:12:07;101765.50;;;-0.54;65.58
61682;BME280;47577;43.610;25.010;2023-02-11T19:14:34;101742.75;;;-0.57;65.63
61682;BME280;47577;43.610;25.010;2023-02-11T19:17:06;101747.31;;;-0.51;64.98
61682;BME280;47577;43.610;25.010;2023-02-11T19:19:33;101729.69;;;-0.57;65.16
61682;BME280;47577;43.610;25.010;2023-02-11T19:22:00;101737.78;;;-0.49;65.60
61682;BME280;47577;43.610;25.010;2023-02-11T19:24:27;101731.47;;;-0.56;65.53
61682;BME280;47577;43.610;25.010;2023-02-11T19:26:56;101731.16;;;-0.65;65.75
61682;BME280;47577;43.610;25.010;2023-02-11T21:13:01;101532.94;;;-0.54;64.29
61682;BME280;47577;43.610;25.010;2023-02-11T21:15:28;101532.91;;;-0.56;64.26
61682;BME280;47577;43.610;25.010;2023-02-11T21:23:04;101563.69;;;-0.15;63.97
61682;BME280;47577;43.610;25.010;2023-02-11T21:25:30;101569.84;;;-0.13;63.57
61682;BME280;47577;43.610;25.010;2023-02-11T21:27:55;101560.81;;;-0.25;63.65
61682;BME280;47577;43.610;25.010;2023-02-11T21:43:18;101551.91;;;-0.01;63.75
61682;BME280;47577;43.610;25.010;2023-02-11T21:45:45;101523.00;;;-0.06;63.02
61682;BME280;47577;43.610;25.010;2023-02-11T21:48:11;101513.13;;;-0.16;62.41
61682;BME280;47577;43.610;25.010;2023-02-11T21:50:39;101506.69;;;-0.29;62.25
61682;BME280;47577;43.610;25.010;2023-02-11T21:53:05;101545.66;;;-0.06;62.98
61682;BME280;47577;43.610;25.010;2023-02-11T21:55:31;101538.59;;;-0.09;62.17
61682;BME280;47577;43.610;25.010;2023-02-11T21:57:57;101538.78;;;-0.03;62.15
61682;BME280;47577;43.610;25.010;2023-02-11T22:00:23;101565.47;;;0.17;62.11
61682;BME280;47577;43.610;25.010;2023-02-11T22:02:49;101577.94;;;0.26;62.44
61682;BME280;47577;43.610;25.010;2023-02-11T22:05:14;101572.84;;;0.32;61.51
61682;BME280;47577;43.610;25.010;2023-02-11T22:07:40;101572.66;;;0.25;62.36
61682;BME280;47577;43.610;25.010;2023-02-11T22:10:06;101575.19;;;0.22;61.94
61682;BME280;47577;43.610;25.010;2023-02-11T22:12:32;101589.34;;;0.30;62.68
61682;BME280;47577;43.610;25.010;2023-02-11T22:14:58;101581.59;;;0.33;62.75
61682;BME280;47577;43.610;25.010;2023-02-11T22:17:23;101589.66;;;0.41;62.27
61682;BME280;47577;43.610;25.010;2023-02-11T22:19:49;101577.44;;;0.41;60.98
61682;BME280;47577;43.610;25.010;2023-02-11T22:22:15;101568.50;;;0.33;62.43
61682;BME280;47577;43.610;25.010;2023-02-11T22:24:45;101574.88;;;0.43;61.76
61682;BME280;47577;43.610;25.010;2023-02-11T22:27:15;101563.13;;;0.60;60.31
61682;BME280;47577;43.610;25.010;2023-02-11T22:29:42;101566.56;;;0.59;60.73
61682;BME280;47577;43.610;25.010;2023-02-11T22:32:08;101557.13;;;0.66;60.66
61682;BME280;47577;43.610;25.010;2023-02-11T22:34:34;101562.34;;;0.64;60.65
61682;BME280;47577;43.610;25.010;2023-02-11T22:37:00;101555.34;;;0.63;60.69
